sensor_id;sensor_type;location;lat;lon;timestamp;P1;durP1;ratioP1;P2;durP2;ratioP2
64678;SDS011;51094;53.864;27.676;2022-08-01T00:01:58;1.20;;;1.20;;
64678;SDS011;51094;53.864;27.676;2022-08-01T00:04:25;1.00;;;1.00;;
64678;SDS011;51094;53.864;27.676;2022-08-01T00:06:51;1.00;;;1.00;;
64678;SDS011;51094;53.864;27.676;2022-08-01T00:09:18;1.10;;;1.10;;
64678;SDS011;51094;53.864;27.676;2022-08-01T00:11:49;1.00;;;1.00;;
64678;SDS011;51094;53.864;27.676;2022-08-01T00:14:25;1.10;;;1.10;;
64678;SDS011;51094;53.864;27.676;2022-08-01T00:16:58;1.10;;;1.10;;
64678;SDS011;51094;53.864;27.676;2022-08-01T00:19:32;1.05;;;1.05;;
64678;SDS011;51094;53.864;27.676;2022-08-01T00:21:59;0.85;;;0.85;;
64678;SDS011;51094;53.864;27.676;2022-08-01T00:24:26;1.00;;;1.00;;
64678;SDS011;51094;53.864;27.676;2022-08-01T00:26:53;0.93;;;0.93;;
64678;SDS011;51094;53.864;27.676;2022-08-01T00:29:20;1.00;;;1.00;;
64678;SDS011;51094;53.864;27.676;2022-08-01T00:32:07;1.10;;;1.10;;
64678;SDS011;51094;53.864;27.676;2022-08-01T00:34:34;0.80;;;0.80;;
64678;SDS011;51094;53.864;27.676;2022-08-01T00:37:01;1.00;;;1.00;;
64678;SDS011;51094;53.864;27.676;2022-08-01T00:39:27;0.95;;;0.95;;
64678;SDS011;51094;53.864;27.676;2022-08-01T00:41:54;1.00;;;1.00;;
64678;SDS011;51094;53.864;27.676;2022-08-01T00:44:26;1.00;;;1.00;;
64678;SDS011;51094;53.864;27.676;2022-08-01T00:46:53;1.00;;;1.00;;
64678;SDS011;51094;53.864;27.676;2022-08-01T00:49:20;1.00;;;1.00;;
64678;SDS011;51094;53.864;27.676;2022-08-01T00:51:46;1.00;;;1.00;;
64678;SDS011;51094;53.864;27.676;2022-08-01T00:54:14;1.20;;;1.20;;
64678;SDS011;51094;53.864;27.676;2022-08-01T00:56:42;1.00;;;1.00;;
64678;SDS011;51094;53.864;27.676;2022-08-01T00:59:09;1.00;;;1.00;;
64678;SDS011;51094;53.864;27.676;2022-08-01T01:01:39;0.93;;;0.93;;
64678;SDS011;51094;53.864;27.676;2022-08-01T01:04:12;1.10;;;1.10;;
64678;SDS011;51094;53.864;27.676;2022-08-01T01:09:15;0.93;;;0.93;;
64678;SDS011;51094;53.864;27.676;2022-08-01T01:14:34;1.00;;;1.00;;
64678;SDS011;51094;53.864;27.676;2022-08-01T01:17:06;1.00;;;1.00;;
64678;SDS011;51094;53.864;27.676;2022-08-01T01:19:35;1.20;;;1.20;;
64678;SDS011;51094;53.864;27.676;2022-08-01T01:22:14;1.10;;;1.10;;
64678;SDS011;51094;53.864;27.676;2022-08-01T01:27:57;1.17;;;1.17;;
64678;SDS011;51094;53.864;27.676;2022-08-01T01:30:38;1.10;;;1.10;;
64678;SDS011;51094;53.864;27.676;2022-08-01T01:33:07;1.17;;;1.17;;
64678;SDS011;51094;53.864;27.676;2022-08-01T01:35:37;1.00;;;1.00;;
64678;SDS011;51094;53.864;27.676;2022-08-01T01:38:10;1.02;;;1.02;;
64678;SDS011;51094;53.864;27.676;2022-08-01T01:40:43;1.10;;;1.10;;
64678;SDS011;51094;53.864;27.676;2022-08-01T01:43:11;0.95;;;0.95;;
64678;SDS011;51094;53.864;27.676;2022-08-01T01:45:40;1.30;;;1.30;;
64678;SDS011;51094;53.864;27.676;2022-08-01T01:50:39;1.20;;;1.20;;
64678;SDS011;51094;53.864;27.676;2022-08-01T01:53:07;1.20;;;1.20;;
64678;SDS011;51094;53.864;27.676;2022-08-01T01:55:40;1.10;;;1.10;;
64678;SDS011;51094;53.864;27.676;2022-08-01T01:58:15;1.17;;;1.17;;
64678;SDS011;51094;53.864;27.676;2022-08-01T02:00:44;1.00;;;1.00;;
64678;SDS011;51094;53.864;27.676;2022-08-01T02:03:12;1.13;;;1.13;;
64678;SDS011;51094;53.864;27.676;2022-08-01T02:05:41;1.17;;;1.17;;
64678;SDS011;51094;53.864;27.676;2022-08-01T02:08:09;1.15;;;1.15;;
64678;SDS011;51094;53.864;27.676;2022-08-01T02:10:37;1.05;;;1.05;;
64678;SDS011;51094;53.864;27.676;2022-08-01T02:13:06;1.05;;;1.05;;
64678;SDS011;51094;53.864;27.676;2022-08-01T02:15:34;1.20;;;1.20;;
64678;SDS011;51094;53.864;27.676;2022-08-01T02:18:25;1.17;;;1.17;;
64678;SDS011;51094;53.864;27.676;2022-08-01T02:20:52;1.10;;;1.10;;
64678;SDS011;51094;53.864;27.676;2022-08-01T02:23:22;1.10;;;1.10;;
64678;SDS011;51094;53.864;27.676;2022-08-01T02:25:53;1.20;;;1.20;;
64678;SDS011;51094;53.864;27.676;2022-08-01T02:28:59;0.98;;;0.98;;
64678;SDS011;51094;53.864;27.676;2022-08-01T02:31:25;1.10;;;1.10;;
64678;SDS011;51094;53.864;27.676;2022-08-01T02:34:04;0.90;;;0.90;;
64678;SDS011;51094;53.864;27.676;2022-08-01T02:36:35;1.13;;;1.13;;
64678;SDS011;51094;53.864;27.676;2022-08-01T02:39:09;1.00;;;1.00;;
64678;SDS011;51094;53.864;27.676;2022-08-01T02:41:43;1.10;;;1.10;;
64678;SDS011;51094;53.864;27.676;2022-08-01T02:44:15;1.10;;;1.10;;
64678;SDS011;51094;53.864;27.676;2022-08-01T02:46:53;1.10;;;1.10;;
64678;SDS011;51094;53.864;27.676;2022-08-01T02:49:32;1.10;;;1.10;;
64678;SDS011;51094;53.864;27.676;2022-08-01T02:52:03;1.20;;;1.20;;
64678;SDS011;51094;53.864;27.676;2022-08-01T02:54:34;1.02;;;1.02;;
64678;SDS011;51094;53.864;27.676;2022-08-01T02:57:03;1.10;;;1.10;;
64678;SDS011;51094;53.864;27.676;2022-08-01T02:59:32;1.33;;;1.33;;
64678;SDS011;51094;53.864;27.676;2022-08-01T03:02:06;1.02;;;1.02;;
64678;SDS011;51094;53.864;27.676;2022-08-01T03:04:35;1.10;;;1.10;;
64678;SDS011;51094;53.864;27.676;2022-08-01T03:07:04;1.00;;;1.00;;
64678;SDS011;51094;53.864;27.676;2022-08-01T03:09:45;1.05;;;1.05;;
64678;SDS011;51094;53.864;27.676;2022-08-01T03:12:15;0.90;;;0.90;;
64678;SDS011;51094;53.864;27.676;2022-08-01T03:14:45;1.00;;;1.00;;
64678;SDS011;51094;53.864;27.676;2022-08-01T03:17:15;1.20;;;1.20;;
64678;SDS011;51094;53.864;27.676;2022-08-01T03:19:44;1.00;;;1.00;;
64678;SDS011;51094;53.864;27.676;2022-08-01T03:22:12;0.90;;;0.90;;
64678;SDS011;51094;53.864;27.676;2022-08-01T03:24:41;1.00;;;1.00;;
64678;SDS011;51094;53.864;27.676;2022-08-01T03:27:09;1.10;;;1.10;;
64678;SDS011;51094;53.864;27.676;2022-08-01T03:29:38;1.00;;;1.00;;
64678;SDS011;51094;53.864;27.676;2022-08-01T03:32:07;1.02;;;1.02;;
64678;SDS011;51094;53.864;27.676;2022-08-01T03:34:36;0.93;;;0.93;;
64678;SDS011;51094;53.864;27.676;2022-08-01T03:37:05;1.00;;;1.00;;
64678;SDS011;51094;53.864;27.676;2022-08-01T03:39:38;1.00;;;1.00;;
64678;SDS011;51094;53.864;27.676;2022-08-01T03:42:12;1.13;;;1.13;;
64678;SDS011;51094;53.864;27.676;2022-08-01T03:44:46;1.10;;;1.10;;
64678;SDS011;51094;53.864;27.676;2022-08-01T03:47:18;1.00;;;1.00;;
64678;SDS011;51094;53.864;27.676;2022-08-01T03:49:49;0.90;;;0.90;;
64678;SDS011;51094;53.864;27.676;2022-08-01T03:52:18;1.00;;;1.00;;
64678;SDS011;51094;53.864;27.676;2022-08-01T03:54:47;1.15;;;1.15;;
64678;SDS011;51094;53.864;27.676;2022-08-01T03:57:17;1.10;;;1.10;;
64678;SDS011;51094;53.864;27.676;2022-08-01T04:00:02;1.00;;;1.00;;
64678;SDS011;51094;53.864;27.676;2022-08-01T04:02:38;1.10;;;1.10;;
64678;SDS011;51094;53.864;27.676;2022-08-01T04:05:05;1.08;;;1.08;;
64678;SDS011;51094;53.864;27.676;2022-08-01T04:07:33;1.00;;;1.00;;
64678;SDS011;51094;53.864;27.676;2022-08-01T04:12:31;1.10;;;1.10;;
64678;SDS011;51094;53.864;27.676;2022-08-01T04:14:58;1.10;;;1.10;;
64678;SDS011;51094;53.864;27.676;2022-08-01T04:17:25;1.00;;;1.00;;
64678;SDS011;51094;53.864;27.676;2022-08-01T04:19:52;1.20;;;1.20;;
64678;SDS011;51094;53.864;27.676;2022-08-01T04:22:18;1.10;;;1.10;;
64678;SDS011;51094;53.864;27.676;2022-08-01T04:24:46;1.25;;;1.25;;
64678;SDS011;51094;53.864;27.676;2022-08-01T04:27:23;1.13;;;1.13;;
64678;SDS011;51094;53.864;27.676;2022-08-01T04:30:27;1.25;;;1.25;;
64678;SDS011;51094;53.864;27.676;2022-08-01T04:32:57;1.30;;;1.30;;
64678;SDS011;51094;53.864;27.676;2022-08-01T04:35:26;1.10;;;1.10;;
64678;SDS011;51094;53.864;27.676;2022-08-01T04:38:15;1.20;;;1.20;;
64678;SDS011;51094;53.864;27.676;2022-08-01T04:40:45;1.20;;;1.20;;
64678;SDS011;51094;53.864;27.676;2022-08-01T04:43:12;1.30;;;1.30;;
64678;SDS011;51094;53.864;27.676;2022-08-01T04:45:40;1.20;;;1.20;;
64678;SDS011;51094;53.864;27.676;2022-08-01T04:48:10;1.27;;;1.27;;
64678;SDS011;51094;53.864;27.676;2022-08-01T04:50:37;1.40;;;1.40;;
64678;SDS011;51094;53.864;27.676;2022-08-01T04:53:04;1.30;;;1.30;;
64678;SDS011;51094;53.864;27.676;2022-08-01T04:55:31;1.10;;;1.10;;
64678;SDS011;51094;53.864;27.676;2022-08-01T04:57:57;1.40;;;1.30;;
64678;SDS011;51094;53.864;27.676;2022-08-01T05:00:25;1.10;;;1.10;;
64678;SDS011;51094;53.864;27.676;2022-08-01T05:02:52;1.20;;;1.20;;
64678;SDS011;51094;53.864;27.676;2022-08-01T05:05:18;1.40;;;1.40;;
64678;SDS011;51094;53.864;27.676;2022-08-01T05:07:47;1.20;;;1.20;;
64678;SDS011;51094;53.864;27.676;2022-08-01T05:10:13;1.38;;;1.38;;
64678;SDS011;51094;53.864;27.676;2022-08-01T05:12:40;1.27;;;1.27;;
64678;SDS011;51094;53.864;27.676;2022-08-01T05:15:07;1.48;;;1.48;;
64678;SDS011;51094;53.864;27.676;2022-08-01T05:17:40;1.35;;;1.35;;
64678;SDS011;51094;53.864;27.676;2022-08-01T05:20:09;1.30;;;1.30;;
64678;SDS011;51094;53.864;27.676;2022-08-01T05:22:36;1.50;;;1.50;;
64678;SDS011;51094;53.864;27.676;2022-08-01T05:25:03;1.50;;;1.50;;
64678;SDS011;51094;53.864;27.676;2022-08-01T05:27:31;1.48;;;1.48;;
64678;SDS011;51094;53.864;27.676;2022-08-01T05:29:59;1.20;;;1.20;;
64678;SDS011;51094;53.864;27.676;2022-08-01T05:32:25;1.25;;;1.25;;
64678;SDS011;51094;53.864;27.676;2022-08-01T05:34:53;1.40;;;1.40;;
64678;SDS011;51094;53.864;27.676;2022-08-01T05:37:19;1.50;;;1.50;;
64678;SDS011;51094;53.864;27.676;2022-08-01T05:39:46;1.40;;;1.40;;
64678;SDS011;51094;53.864;27.676;2022-08-01T05:42:13;1.40;;;1.40;;
64678;SDS011;51094;53.864;27.676;2022-08-01T05:44:39;1.52;;;1.52;;
64678;SDS011;51094;53.864;27.676;2022-08-01T05:47:06;1.30;;;1.30;;
64678;SDS011;51094;53.864;27.676;2022-08-01T05:49:33;1.50;;;1.50;;
64678;SDS011;51094;53.864;27.676;2022-08-01T05:51:59;1.30;;;1.30;;
64678;SDS011;51094;53.864;27.676;2022-08-01T05:54:28;1.60;;;1.60;;
64678;SDS011;51094;53.864;27.676;2022-08-01T05:56:55;1.60;;;1.60;;
64678;SDS011;51094;53.864;27.676;2022-08-01T05:59:26;1.40;;;1.40;;
64678;SDS011;51094;53.864;27.676;2022-08-01T06:01:52;1.60;;;1.60;;
64678;SDS011;51094;53.864;27.676;2022-08-01T06:04:19;1.48;;;1.48;;
64678;SDS011;51094;53.864;27.676;2022-08-01T06:06:45;1.50;;;1.50;;
64678;SDS011;51094;53.864;27.676;2022-08-01T06:09:12;1.60;;;1.60;;
64678;SDS011;51094;53.864;27.676;2022-08-01T06:11:39;1.60;;;1.60;;
64678;SDS011;51094;53.864;27.676;2022-08-01T06:14:06;1.70;;;1.70;;
64678;SDS011;51094;53.864;27.676;2022-08-01T06:16:32;1.80;;;1.80;;
64678;SDS011;51094;53.864;27.676;2022-08-01T06:18:59;1.55;;;1.55;;
64678;SDS011;51094;53.864;27.676;2022-08-01T06:21:26;1.60;;;1.60;;
64678;SDS011;51094;53.864;27.676;2022-08-01T06:23:52;1.65;;;1.65;;
64678;SDS011;51094;53.864;27.676;2022-08-01T06:26:19;1.50;;;1.50;;
64678;SDS011;51094;53.864;27.676;2022-08-01T06:28:46;1.83;;;1.83;;
64678;SDS011;51094;53.864;27.676;2022-08-01T06:31:13;1.70;;;1.70;;
64678;SDS011;51094;53.864;27.676;2022-08-01T06:33:40;1.40;;;1.40;;
64678;SDS011;51094;53.864;27.676;2022-08-01T06:36:07;1.60;;;1.60;;
64678;SDS011;51094;53.864;27.676;2022-08-01T06:38:35;1.60;;;1.60;;
64678;SDS011;51094;53.864;27.676;2022-08-01T06:41:01;1.73;;;1.73;;
64678;SDS011;51094;53.864;27.676;2022-08-01T06:43:28;1.95;;;1.95;;
64678;SDS011;51094;53.864;27.676;2022-08-01T06:45:55;1.75;;;1.75;;
64678;SDS011;51094;53.864;27.676;2022-08-01T06:48:21;1.80;;;1.80;;
64678;SDS011;51094;53.864;27.676;2022-08-01T06:50:49;2.63;;;2.53;;
64678;SDS011;51094;53.864;27.676;2022-08-01T06:53:37;2.00;;;2.00;;
64678;SDS011;51094;53.864;27.676;2022-08-01T06:56:04;1.70;;;1.70;;
64678;SDS011;51094;53.864;27.676;2022-08-01T06:58:32;1.80;;;1.80;;
64678;SDS011;51094;53.864;27.676;2022-08-01T07:01:00;1.60;;;1.60;;
64678;SDS011;51094;53.864;27.676;2022-08-01T07:06:17;1.83;;;1.83;;
64678;SDS011;51094;53.864;27.676;2022-08-01T07:08:43;2.00;;;2.00;;
64678;SDS011;51094;53.864;27.676;2022-08-01T07:11:10;2.00;;;2.00;;
64678;SDS011;51094;53.864;27.676;2022-08-01T07:13:36;1.90;;;1.90;;
64678;SDS011;51094;53.864;27.676;2022-08-01T07:16:14;1.88;;;1.88;;
64678;SDS011;51094;53.864;27.676;2022-08-01T07:18:43;1.73;;;1.73;;
64678;SDS011;51094;53.864;27.676;2022-08-01T07:21:10;1.80;;;1.80;;
64678;SDS011;51094;53.864;27.676;2022-08-01T07:23:57;1.63;;;1.63;;
64678;SDS011;51094;53.864;27.676;2022-08-01T07:26:25;1.90;;;1.90;;
64678;SDS011;51094;53.864;27.676;2022-08-01T07:28:53;1.88;;;1.88;;
64678;SDS011;51094;53.864;27.676;2022-08-01T07:31:19;1.70;;;1.70;;
64678;SDS011;51094;53.864;27.676;2022-08-01T07:33:46;1.77;;;1.77;;
64678;SDS011;51094;53.864;27.676;2022-08-01T07:36:17;1.80;;;1.80;;
64678;SDS011;51094;53.864;27.676;2022-08-01T07:38:45;1.55;;;1.55;;
64678;SDS011;51094;53.864;27.676;2022-08-01T07:41:12;1.75;;;1.75;;
64678;SDS011;51094;53.864;27.676;2022-08-01T07:43:39;1.75;;;1.75;;
64678;SDS011;51094;53.864;27.676;2022-08-01T07:46:05;1.70;;;1.70;;
64678;SDS011;51094;53.864;27.676;2022-08-01T07:48:32;1.63;;;1.63;;
64678;SDS011;51094;53.864;27.676;2022-08-01T07:50:59;1.60;;;1.60;;
64678;SDS011;51094;53.864;27.676;2022-08-01T07:53:26;1.60;;;1.60;;
64678;SDS011;51094;53.864;27.676;2022-08-01T07:55:52;1.70;;;1.70;;
64678;SDS011;51094;53.864;27.676;2022-08-01T07:58:19;1.65;;;1.65;;
64678;SDS011;51094;53.864;27.676;2022-08-01T08:00:46;1.60;;;1.60;;
64678;SDS011;51094;53.864;27.676;2022-08-01T08:03:12;1.50;;;1.50;;
64678;SDS011;51094;53.864;27.676;2022-08-01T08:05:39;1.45;;;1.45;;
64678;SDS011;51094;53.864;27.676;2022-08-01T08:08:25;1.30;;;1.30;;
64678;SDS011;51094;53.864;27.676;2022-08-01T08:10:52;1.35;;;1.35;;
64678;SDS011;51094;53.864;27.676;2022-08-01T08:13:19;1.40;;;1.40;;
64678;SDS011;51094;53.864;27.676;2022-08-01T08:15:46;1.50;;;1.50;;
64678;SDS011;51094;53.864;27.676;2022-08-01T08:18:14;1.20;;;1.20;;
64678;SDS011;51094;53.864;27.676;2022-08-01T08:20:41;1.27;;;1.27;;
64678;SDS011;51094;53.864;27.676;2022-08-01T08:23:07;1.10;;;1.10;;
64678;SDS011;51094;53.864;27.676;2022-08-01T08:26:08;1.30;;;1.30;;
64678;SDS011;51094;53.864;27.676;2022-08-01T08:28:35;1.15;;;1.15;;
64678;SDS011;51094;53.864;27.676;2022-08-01T08:31:01;1.50;;;1.40;;
64678;SDS011;51094;53.864;27.676;2022-08-01T08:33:28;1.40;;;1.40;;
64678;SDS011;51094;53.864;27.676;2022-08-01T08:35:55;1.08;;;1.08;;
64678;SDS011;51094;53.864;27.676;2022-08-01T08:38:22;1.00;;;1.00;;
64678;SDS011;51094;53.864;27.676;2022-08-01T08:40:55;1.20;;;1.13;;
64678;SDS011;51094;53.864;27.676;2022-08-01T08:43:24;1.00;;;1.00;;
64678;SDS011;51094;53.864;27.676;2022-08-01T08:45:52;1.13;;;1.13;;
64678;SDS011;51094;53.864;27.676;2022-08-01T08:48:25;1.00;;;1.00;;
64678;SDS011;51094;53.864;27.676;2022-08-01T08:50:53;1.20;;;1.20;;
64678;SDS011;51094;53.864;27.676;2022-08-01T08:53:21;1.00;;;1.00;;
64678;SDS011;51094;53.864;27.676;2022-08-01T08:55:48;1.50;;;1.50;;
64678;SDS011;51094;53.864;27.676;2022-08-01T08:58:21;1.20;;;1.10;;
64678;SDS011;51094;53.864;27.676;2022-08-01T09:00:56;1.10;;;1.10;;
64678;SDS011;51094;53.864;27.676;2022-08-01T09:03:24;1.10;;;1.10;;
64678;SDS011;51094;53.864;27.676;2022-08-01T09:05:51;0.82;;;0.82;;
64678;SDS011;51094;53.864;27.676;2022-08-01T09:08:17;0.70;;;0.70;;
64678;SDS011;51094;53.864;27.676;2022-08-01T09:10:44;0.80;;;0.80;;
64678;SDS011;51094;53.864;27.676;2022-08-01T09:13:13;0.90;;;0.90;;
64678;SDS011;51094;53.864;27.676;2022-08-01T09:15:48;0.90;;;0.90;;
64678;SDS011;51094;53.864;27.676;2022-08-01T09:18:30;1.10;;;1.10;;
64678;SDS011;51094;53.864;27.676;2022-08-01T09:21:11;0.93;;;0.93;;
64678;SDS011;51094;53.864;27.676;2022-08-01T09:23:50;0.80;;;0.80;;
64678;SDS011;51094;53.864;27.676;2022-08-01T09:26:33;1.20;;;1.20;;
64678;SDS011;51094;53.864;27.676;2022-08-01T09:29:06;1.00;;;1.00;;
64678;SDS011;51094;53.864;27.676;2022-08-01T09:31:42;0.80;;;0.80;;
64678;SDS011;51094;53.864;27.676;2022-08-01T09:34:13;0.80;;;0.80;;
64678;SDS011;51094;53.864;27.676;2022-08-01T09:39:24;0.80;;;0.80;;
64678;SDS011;51094;53.864;27.676;2022-08-01T09:41:59;0.80;;;0.80;;
64678;SDS011;51094;53.864;27.676;2022-08-01T09:44:43;0.60;;;0.60;;
64678;SDS011;51094;53.864;27.676;2022-08-01T09:47:20;1.10;;;1.08;;
64678;SDS011;51094;53.864;27.676;2022-08-01T09:52:23;0.90;;;0.90;;
64678;SDS011;51094;53.864;27.676;2022-08-01T09:54:58;0.60;;;0.60;;
64678;SDS011;51094;53.864;27.676;2022-08-01T09:57:26;0.85;;;0.85;;
64678;SDS011;51094;53.864;27.676;2022-08-01T09:59:57;0.70;;;0.70;;
64678;SDS011;51094;53.864;27.676;2022-08-01T10:04:59;1.58;;;1.48;;
64678;SDS011;51094;53.864;27.676;2022-08-01T10:07:34;1.05;;;1.05;;
64678;SDS011;51094;53.864;27.676;2022-08-01T10:10:13;0.80;;;0.80;;
64678;SDS011;51094;53.864;27.676;2022-08-01T10:12:41;0.80;;;0.80;;
64678;SDS011;51094;53.864;27.676;2022-08-01T10:15:10;0.70;;;0.70;;
64678;SDS011;51094;53.864;27.676;2022-08-01T10:17:39;0.80;;;0.80;;
64678;SDS011;51094;53.864;27.676;2022-08-01T10:20:18;0.70;;;0.70;;
64678;SDS011;51094;53.864;27.676;2022-08-01T10:23:01;0.70;;;0.70;;
64678;SDS011;51094;53.864;27.676;2022-08-01T10:25:34;0.80;;;0.80;;
64678;SDS011;51094;53.864;27.676;2022-08-01T10:28:16;0.90;;;0.90;;
64678;SDS011;51094;53.864;27.676;2022-08-01T10:30:49;0.80;;;0.80;;
64678;SDS011;51094;53.864;27.676;2022-08-01T10:33:21;0.70;;;0.70;;
64678;SDS011;51094;53.864;27.676;2022-08-01T10:36:08;0.50;;;0.50;;
64678;SDS011;51094;53.864;27.676;2022-08-01T10:38:36;0.70;;;0.70;;
64678;SDS011;51094;53.864;27.676;2022-08-01T10:43:32;0.80;;;0.80;;
64678;SDS011;51094;53.864;27.676;2022-08-01T10:46:00;0.57;;;0.57;;
64678;SDS011;51094;53.864;27.676;2022-08-01T10:48:30;0.70;;;0.70;;
64678;SDS011;51094;53.864;27.676;2022-08-01T10:51:04;0.80;;;0.80;;
64678;SDS011;51094;53.864;27.676;2022-08-01T10:53:53;0.80;;;0.80;;
64678;SDS011;51094;53.864;27.676;2022-08-01T10:59:03;0.60;;;0.60;;
64678;SDS011;51094;53.864;27.676;2022-08-01T11:01:36;0.80;;;0.80;;
64678;SDS011;51094;53.864;27.676;2022-08-01T11:04:05;0.80;;;0.80;;
64678;SDS011;51094;53.864;27.676;2022-08-01T11:07:02;0.60;;;0.60;;
64678;SDS011;51094;53.864;27.676;2022-08-01T11:09:39;0.80;;;0.80;;
64678;SDS011;51094;53.864;27.676;2022-08-01T11:12:17;1.30;;;1.20;;
64678;SDS011;51094;53.864;27.676;2022-08-01T11:17:32;1.20;;;1.10;;
64678;SDS011;51094;53.864;27.676;2022-08-01T11:20:08;0.80;;;0.80;;
64678;SDS011;51094;53.864;27.676;2022-08-01T11:25:23;0.93;;;0.90;;
64678;SDS011;51094;53.864;27.676;2022-08-01T11:30:41;0.70;;;0.70;;
64678;SDS011;51094;53.864;27.676;2022-08-01T11:33:12;0.75;;;0.75;;
64678;SDS011;51094;53.864;27.676;2022-08-01T11:38:43;0.90;;;0.90;;
64678;SDS011;51094;53.864;27.676;2022-08-01T11:43:54;0.93;;;0.93;;
64678;SDS011;51094;53.864;27.676;2022-08-01T11:49:26;0.90;;;0.90;;
64678;SDS011;51094;53.864;27.676;2022-08-01T11:54:44;0.82;;;0.82;;
64678;SDS011;51094;53.864;27.676;2022-08-01T11:57:27;0.70;;;0.70;;
64678;SDS011;51094;53.864;27.676;2022-08-01T12:00:00;0.80;;;0.80;;
64678;SDS011;51094;53.864;27.676;2022-08-01T12:02:40;1.08;;;1.08;;
64678;SDS011;51094;53.864;27.676;2022-08-01T12:07:39;0.70;;;0.70;;
64678;SDS011;51094;53.864;27.676;2022-08-01T12:10:11;0.80;;;0.80;;
64678;SDS011;51094;53.864;27.676;2022-08-01T12:12:45;0.65;;;0.65;;
64678;SDS011;51094;53.864;27.676;2022-08-01T12:15:15;0.80;;;0.80;;
64678;SDS011;51094;53.864;27.676;2022-08-01T12:17:43;0.75;;;0.75;;
64678;SDS011;51094;53.864;27.676;2022-08-01T12:20:24;0.70;;;0.70;;
64678;SDS011;51094;53.864;27.676;2022-08-01T12:22:57;0.70;;;0.70;;
64678;SDS011;51094;53.864;27.676;2022-08-01T12:25:25;0.60;;;0.60;;
64678;SDS011;51094;53.864;27.676;2022-08-01T12:27:52;1.00;;;1.00;;
64678;SDS011;51094;53.864;27.676;2022-08-01T12:30:22;0.70;;;0.70;;
64678;SDS011;51094;53.864;27.676;2022-08-01T12:32:50;1.33;;;1.23;;
64678;SDS011;51094;53.864;27.676;2022-08-01T12:35:19;0.90;;;0.90;;
64678;SDS011;51094;53.864;27.676;2022-08-01T12:37:54;0.73;;;0.73;;
64678;SDS011;51094;53.864;27.676;2022-08-01T12:42:52;0.82;;;0.82;;
64678;SDS011;51094;53.864;27.676;2022-08-01T12:45:21;1.10;;;1.10;;
64678;SDS011;51094;53.864;27.676;2022-08-01T12:47:53;0.80;;;0.80;;
64678;SDS011;51094;53.864;27.676;2022-08-01T12:50:22;0.70;;;0.70;;
64678;SDS011;51094;53.864;27.676;2022-08-01T12:52:50;0.70;;;0.70;;
64678;SDS011;51094;53.864;27.676;2022-08-01T12:55:18;0.73;;;0.73;;
64678;SDS011;51094;53.864;27.676;2022-08-01T12:58:09;0.75;;;0.75;;
64678;SDS011;51094;53.864;27.676;2022-08-01T13:00:42;0.90;;;0.90;;
64678;SDS011;51094;53.864;27.676;2022-08-01T13:03:14;0.90;;;0.90;;
64678;SDS011;51094;53.864;27.676;2022-08-01T13:05:47;0.60;;;0.60;;
64678;SDS011;51094;53.864;27.676;2022-08-01T13:08:19;0.70;;;0.70;;
64678;SDS011;51094;53.864;27.676;2022-08-01T13:10:51;0.70;;;0.70;;
64678;SDS011;51094;53.864;27.676;2022-08-01T13:13:39;0.68;;;0.68;;
64678;SDS011;51094;53.864;27.676;2022-08-01T13:16:10;0.68;;;0.68;;
64678;SDS011;51094;53.864;27.676;2022-08-01T13:18:57;0.73;;;0.73;;
64678;SDS011;51094;53.864;27.676;2022-08-01T13:21:25;0.70;;;0.70;;
64678;SDS011;51094;53.864;27.676;2022-08-01T13:24:06;0.70;;;0.70;;
64678;SDS011;51094;53.864;27.676;2022-08-01T13:26:41;1.10;;;1.10;;
64678;SDS011;51094;53.864;27.676;2022-08-01T13:29:15;1.00;;;1.00;;
64678;SDS011;51094;53.864;27.676;2022-08-01T13:31:43;0.80;;;0.80;;
64678;SDS011;51094;53.864;27.676;2022-08-01T13:34:10;0.70;;;0.70;;
64678;SDS011;51094;53.864;27.676;2022-08-01T13:36:37;0.82;;;0.82;;
64678;SDS011;51094;53.864;27.676;2022-08-01T13:39:04;1.10;;;1.10;;
64678;SDS011;51094;53.864;27.676;2022-08-01T13:41:50;1.00;;;1.00;;
64678;SDS011;51094;53.864;27.676;2022-08-01T13:44:18;0.70;;;0.70;;
64678;SDS011;51094;53.864;27.676;2022-08-01T13:46:45;0.90;;;0.90;;
64678;SDS011;51094;53.864;27.676;2022-08-01T13:49:16;0.73;;;0.73;;
64678;SDS011;51094;53.864;27.676;2022-08-01T13:51:44;1.08;;;1.08;;
64678;SDS011;51094;53.864;27.676;2022-08-01T13:54:12;0.93;;;0.93;;
64678;SDS011;51094;53.864;27.676;2022-08-01T13:56:39;0.80;;;0.80;;
64678;SDS011;51094;53.864;27.676;2022-08-01T13:59:06;0.70;;;0.70;;
64678;SDS011;51094;53.864;27.676;2022-08-01T14:01:33;1.00;;;1.00;;
64678;SDS011;51094;53.864;27.676;2022-08-01T14:04:01;0.70;;;0.70;;
64678;SDS011;51094;53.864;27.676;2022-08-01T14:06:28;0.60;;;0.60;;
64678;SDS011;51094;53.864;27.676;2022-08-01T14:08:55;0.70;;;0.70;;
64678;SDS011;51094;53.864;27.676;2022-08-01T14:11:22;0.70;;;0.70;;
64678;SDS011;51094;53.864;27.676;2022-08-01T14:13:49;0.70;;;0.70;;
64678;SDS011;51094;53.864;27.676;2022-08-01T14:16:16;0.70;;;0.70;;
64678;SDS011;51094;53.864;27.676;2022-08-01T14:18:44;0.60;;;0.60;;
64678;SDS011;51094;53.864;27.676;2022-08-01T14:21:12;0.80;;;0.80;;
64678;SDS011;51094;53.864;27.676;2022-08-01T14:23:38;0.90;;;0.90;;
64678;SDS011;51094;53.864;27.676;2022-08-01T14:26:05;0.80;;;0.80;;
64678;SDS011;51094;53.864;27.676;2022-08-01T14:28:37;0.90;;;0.90;;
64678;SDS011;51094;53.864;27.676;2022-08-01T14:31:04;0.90;;;0.90;;
64678;SDS011;51094;53.864;27.676;2022-08-01T14:33:34;1.10;;;1.10;;
64678;SDS011;51094;53.864;27.676;2022-08-01T14:36:01;0.80;;;0.80;;
64678;SDS011;51094;53.864;27.676;2022-08-01T14:38:48;0.80;;;0.80;;
64678;SDS011;51094;53.864;27.676;2022-08-01T14:41:15;0.90;;;0.90;;
64678;SDS011;51094;53.864;27.676;2022-08-01T14:43:41;1.05;;;1.05;;
64678;SDS011;51094;53.864;27.676;2022-08-01T14:46:08;1.60;;;1.20;;
64678;SDS011;51094;53.864;27.676;2022-08-01T14:48:36;1.17;;;1.17;;
64678;SDS011;51094;53.864;27.676;2022-08-01T14:51:03;1.40;;;1.40;;
64678;SDS011;51094;53.864;27.676;2022-08-01T14:53:30;1.50;;;1.50;;
64678;SDS011;51094;53.864;27.676;2022-08-01T14:56:02;1.70;;;1.60;;
64678;SDS011;51094;53.864;27.676;2022-08-01T14:58:29;1.60;;;1.60;;
64678;SDS011;51094;53.864;27.676;2022-08-01T15:00:56;2.28;;;2.28;;
64678;SDS011;51094;53.864;27.676;2022-08-01T15:03:24;2.63;;;2.63;;
64678;SDS011;51094;53.864;27.676;2022-08-01T15:05:51;1.90;;;1.90;;
64678;SDS011;51094;53.864;27.676;2022-08-01T15:08:18;1.90;;;1.90;;
64678;SDS011;51094;53.864;27.676;2022-08-01T15:10:45;2.00;;;2.00;;
64678;SDS011;51094;53.864;27.676;2022-08-01T15:13:12;2.13;;;2.13;;
64678;SDS011;51094;53.864;27.676;2022-08-01T15:15:38;1.95;;;1.95;;
64678;SDS011;51094;53.864;27.676;2022-08-01T15:18:05;4.32;;;4.22;;
64678;SDS011;51094;53.864;27.676;2022-08-01T15:20:32;2.10;;;2.10;;
64678;SDS011;51094;53.864;27.676;2022-08-01T15:22:59;2.08;;;2.08;;
64678;SDS011;51094;53.864;27.676;2022-08-01T15:25:25;2.95;;;2.95;;
64678;SDS011;51094;53.864;27.676;2022-08-01T15:28:07;2.92;;;2.92;;
64678;SDS011;51094;53.864;27.676;2022-08-01T15:30:37;1.77;;;1.77;;
64678;SDS011;51094;53.864;27.676;2022-08-01T15:33:04;1.60;;;1.60;;
64678;SDS011;51094;53.864;27.676;2022-08-01T15:35:31;1.25;;;1.25;;
64678;SDS011;51094;53.864;27.676;2022-08-01T15:37:58;1.23;;;1.23;;
64678;SDS011;51094;53.864;27.676;2022-08-01T15:40:25;1.20;;;1.20;;
64678;SDS011;51094;53.864;27.676;2022-08-01T15:42:53;2.42;;;2.42;;
64678;SDS011;51094;53.864;27.676;2022-08-01T15:45:19;1.60;;;1.60;;
64678;SDS011;51094;53.864;27.676;2022-08-01T15:48:09;1.55;;;1.55;;